createdAt,value
2024-03-06T00:05:49.208Z,10.26
2024-03-06T00:17:47.798Z,10.25
2024-03-06T00:29:47.627Z,10.25
2024-03-06T00:41:47.761Z,10.24
2024-03-06T00:53:47.634Z,10.24
2024-03-06T01:05:49.445Z,10.24
2024-03-06T01:17:47.754Z,10.24
2024-03-06T01:29:47.629Z,10.23
2024-03-06T01:41:47.659Z,10.23
2024-03-06T01:53:47.637Z,10.22
2024-03-06T02:05:49.458Z,10.22
2024-03-06T02:17:47.743Z,10.22
2024-03-06T02:29:47.767Z,10.21
2024-03-06T02:41:47.733Z,10.21
2024-03-06T02:53:47.647Z,10.20
2024-03-06T03:05:49.540Z,10.20
2024-03-06T03:17:47.790Z,10.20
2024-03-06T03:29:47.682Z,10.20
2024-03-06T03:41:47.803Z,10.20
2024-03-06T03:53:47.630Z,10.19
2024-03-06T04:05:49.589Z,10.19
2024-03-06T04:17:47.772Z,10.18
2024-03-06T04:29:47.722Z,10.18
2024-03-06T04:41:47.756Z,10.18
2024-03-06T04:53:47.624Z,10.17
2024-03-06T06:05:49.797Z,10.15
2024-03-06T06:17:48.141Z,10.15
2024-03-06T06:29:47.754Z,10.14
2024-03-06T06:41:47.645Z,10.14
2024-03-06T06:53:47.671Z,10.14
2024-03-06T07:05:47.694Z,10.14
2024-03-06T07:17:47.799Z,10.13
2024-03-06T07:29:47.750Z,10.13
2024-03-06T07:41:48.302Z,10.14
2024-03-06T07:53:47.679Z,10.18
2024-03-06T08:05:47.764Z,10.20
2024-03-06T08:17:47.801Z,10.24
2024-03-06T08:29:47.629Z,10.35
2024-03-06T08:41:47.803Z,10.41
2024-03-06T08:53:47.696Z,10.52
2024-03-06T09:05:47.725Z,10.62
2024-03-06T09:17:47.741Z,10.63
2024-03-06T09:29:47.777Z,10.62
2024-03-06T09:41:47.834Z,10.63
2024-03-06T09:53:47.693Z,10.66
2024-03-06T10:05:47.820Z,10.66
2024-03-06T10:17:48.275Z,10.68
2024-03-06T10:29:47.751Z,10.75
2024-03-06T10:41:47.823Z,10.94
2024-03-06T10:53:47.681Z,10.89
2024-03-06T11:05:47.840Z,10.90
2024-03-06T11:17:47.812Z,10.99
2024-03-06T11:29:47.669Z,11.06
2024-03-06T11:41:47.762Z,11.23
2024-03-06T11:53:47.697Z,11.35
2024-03-06T12:05:47.783Z,11.45
2024-03-06T12:17:47.963Z,11.58
2024-03-06T12:29:48.061Z,11.82
2024-03-06T12:41:47.746Z,11.98
2024-03-06T12:53:47.692Z,12.02
2024-03-06T13:05:47.736Z,12.25
2024-03-06T13:17:47.922Z,12.42
2024-03-06T13:29:47.702Z,12.61
2024-03-06T13:41:47.708Z,12.61
2024-03-06T13:53:47.664Z,12.61
2024-03-06T14:05:47.678Z,12.62
2024-03-06T14:17:47.871Z,12.63
2024-03-06T14:29:47.728Z,12.63
2024-03-06T14:41:47.781Z,12.65
2024-03-06T14:53:47.667Z,12.64
2024-03-06T15:05:47.871Z,12.64
2024-03-06T15:17:47.987Z,12.63
2024-03-06T15:29:47.859Z,12.60
2024-03-06T15:41:47.776Z,12.58
2024-03-06T15:53:47.673Z,12.55
2024-03-06T16:05:50.452Z,12.53
2024-03-06T16:17:47.737Z,12.51
2024-03-06T16:29:47.711Z,12.48
2024-03-06T16:41:47.691Z,12.46
2024-03-06T16:53:47.749Z,12.44
2024-03-06T17:05:47.705Z,12.42
2024-03-06T17:17:47.771Z,12.41
2024-03-06T17:29:47.798Z,12.38
2024-03-06T17:41:47.894Z,12.36
2024-03-06T17:53:47.700Z,12.34
2024-03-06T18:05:47.746Z,12.32
2024-03-06T18:17:48.467Z,12.30
2024-03-06T18:29:47.809Z,12.28
2024-03-06T18:41:47.944Z,12.26
2024-03-06T18:53:47.679Z,12.23
2024-03-06T19:05:48.702Z,12.22
2024-03-06T19:17:48.180Z,12.20
2024-03-06T19:29:47.820Z,12.17
2024-03-06T19:41:47.670Z,12.16
2024-03-06T19:53:47.740Z,12.14
2024-03-06T20:05:47.764Z,12.11
2024-03-06T20:17:47.825Z,12.11
2024-03-06T20:29:47.882Z,12.09
2024-03-06T20:41:48.019Z,12.06
2024-03-06T20:53:47.872Z,12.03
2024-03-06T21:05:47.891Z,12.03
2024-03-06T21:17:47.873Z,12.02
2024-03-06T21:29:47.769Z,11.99
2024-03-06T21:41:47.887Z,11.98
2024-03-06T21:53:47.745Z,11.95
2024-03-06T22:05:47.750Z,11.94
2024-03-06T22:17:49.176Z,11.91
2024-03-06T22:29:47.923Z,11.88
2024-03-06T22:41:47.768Z,11.87
2024-03-06T22:53:47.787Z,11.86
2024-03-06T23:05:47.797Z,11.84
2024-03-06T23:17:47.780Z,11.82
2024-03-06T23:29:47.749Z,11.79
2024-03-06T23:41:47.710Z,11.77
2024-03-06T23:53:47.941Z,11.76
